createdAt,value
2023-06-16T00:00:22.268Z,18.31
2023-06-16T00:02:49.891Z,18.31
2023-06-16T00:05:17.783Z,18.36
2023-06-16T00:07:45.084Z,18.36
2023-06-16T00:10:12.605Z,18.38
2023-06-16T00:12:41.835Z,18.39
2023-06-16T00:15:09.826Z,18.40
2023-06-16T00:17:46.064Z,18.44
2023-06-16T00:20:17.550Z,18.41
2023-06-16T00:22:49.201Z,18.43
2023-06-16T00:25:18.448Z,18.59
2023-06-16T00:27:46.552Z,18.46
2023-06-16T00:30:14.242Z,18.43
2023-06-16T00:35:23.460Z,18.37
2023-06-16T00:37:50.739Z,18.38
2023-06-16T00:40:18.132Z,18.38
2023-06-16T00:42:46.222Z,18.37
2023-06-16T00:45:13.467Z,18.39
2023-06-16T00:47:41.102Z,18.36
2023-06-16T00:50:09.191Z,18.37
2023-06-16T00:52:38.936Z,18.32
2023-06-16T00:55:09.955Z,18.28
2023-06-16T00:57:38.456Z,18.25
2023-06-16T01:00:12.596Z,18.23
2023-06-16T01:02:40.698Z,18.18
2023-06-16T01:05:09.737Z,18.14
2023-06-16T01:07:55.832Z,18.09
2023-06-16T01:10:40.760Z,18.08
2023-06-16T01:13:47.802Z,18.05
2023-06-16T01:16:20.206Z,18.07
2023-06-16T01:18:49.400Z,18.00
2023-06-16T01:21:30.093Z,17.97
2023-06-16T01:24:06.635Z,17.96
2023-06-16T01:26:36.939Z,17.93
2023-06-16T01:29:12.213Z,17.91
2023-06-16T01:31:48.213Z,17.83
2023-06-16T01:34:16.625Z,17.83
2023-06-16T01:36:46.120Z,17.77
2023-06-16T01:39:15.589Z,17.78
2023-06-16T01:41:43.244Z,17.75
2023-06-16T01:44:11.065Z,17.66
2023-06-16T01:46:38.787Z,17.62
2023-06-16T01:49:06.487Z,17.59
2023-06-16T01:51:34.227Z,17.52
2023-06-16T01:54:03.337Z,17.63
2023-06-16T01:56:34.761Z,17.56
2023-06-16T01:59:03.066Z,17.51
2023-06-16T02:01:31.822Z,17.46
2023-06-16T02:04:08.363Z,17.46
2023-06-16T02:06:42.148Z,17.40
2023-06-16T02:09:12.802Z,17.36
2023-06-16T02:11:40.691Z,17.33
2023-06-16T02:14:08.242Z,17.34
2023-06-16T02:16:38.146Z,17.37
2023-06-16T02:19:05.559Z,17.40
2023-06-16T02:21:33.194Z,17.37
2023-06-16T02:24:10.457Z,17.39
2023-06-16T02:26:41.200Z,17.39
2023-06-16T02:29:08.460Z,17.35
2023-06-16T02:31:40.638Z,16.91
2023-06-16T02:34:08.346Z,16.76
2023-06-16T02:36:38.108Z,16.68
2023-06-16T02:39:05.610Z,16.71
2023-06-16T02:41:34.302Z,16.84
2023-06-16T02:44:01.682Z,17.00
2023-06-16T02:46:29.427Z,17.06
2023-06-16T02:48:57.511Z,17.17
2023-06-16T02:51:24.732Z,17.21
2023-06-16T02:53:53.005Z,17.26
2023-06-16T02:56:22.310Z,17.27
2023-06-16T02:58:49.606Z,17.19
2023-06-16T03:01:17.068Z,17.22
2023-06-16T03:03:48.348Z,17.19
2023-06-16T03:06:17.995Z,17.21
2023-06-16T03:08:46.133Z,17.25
2023-06-16T03:11:14.878Z,17.30
2023-06-16T03:13:44.583Z,17.30
2023-06-16T03:16:13.394Z,17.21
2023-06-16T03:18:41.263Z,17.12
2023-06-16T03:21:08.870Z,17.10
2023-06-16T03:23:37.041Z,17.16
2023-06-16T03:26:05.164Z,17.19
2023-06-16T03:28:36.437Z,17.26
2023-06-16T03:31:05.423Z,17.13
2023-06-16T03:33:34.163Z,17.20
2023-06-16T03:36:02.791Z,17.21
2023-06-16T03:38:31.164Z,17.22
2023-06-16T03:40:58.959Z,17.28
2023-06-16T03:43:26.222Z,17.32
2023-06-16T03:45:54.990Z,17.28
2023-06-16T03:48:22.718Z,17.27
2023-06-16T03:50:51.314Z,17.34
2023-06-16T03:53:18.879Z,17.43
2023-06-16T03:55:46.228Z,17.45
2023-06-16T03:58:16.544Z,17.54
2023-06-16T04:00:45.682Z,17.59
2023-06-16T04:03:16.694Z,17.76
2023-06-16T04:05:44.334Z,17.79
2023-06-16T04:08:12.273Z,17.84
2023-06-16T04:10:40.138Z,17.87
2023-06-16T04:13:07.557Z,17.95
2023-06-16T04:15:34.974Z,18.04
2023-06-16T04:18:02.918Z,18.22
2023-06-16T04:20:30.813Z,18.36
2023-06-16T04:22:58.207Z,18.41
2023-06-16T04:25:26.521Z,18.60
2023-06-16T04:27:54.367Z,18.78
2023-06-16T04:30:23.600Z,19.01
2023-06-16T04:32:52.502Z,19.21
2023-06-16T04:35:20.219Z,19.45
2023-06-16T04:37:47.682Z,19.73
2023-06-16T04:40:15.784Z,19.93
2023-06-16T04:42:43.628Z,20.06
2023-06-16T04:45:12.721Z,20.17
2023-06-16T04:47:42.809Z,20.24
2023-06-16T04:50:11.318Z,20.44
2023-06-16T04:52:41.046Z,20.47
2023-06-16T04:55:09.313Z,20.43
2023-06-16T04:57:37.240Z,20.47
2023-06-16T05:00:09.293Z,20.52
2023-06-16T05:02:42.869Z,20.67
2023-06-16T05:05:10.836Z,20.69
2023-06-16T05:08:03.761Z,20.65
2023-06-16T05:10:40.125Z,20.68
2023-06-16T05:13:20.836Z,20.81
2023-06-16T05:15:50.182Z,20.87
2023-06-16T05:18:21.383Z,21.01
2023-06-16T05:20:49.014Z,21.09
2023-06-16T05:23:28.566Z,21.22
2023-06-16T05:26:14.593Z,21.32
2023-06-16T05:28:56.645Z,21.49
2023-06-16T05:31:38.430Z,21.53
2023-06-16T05:34:07.426Z,21.68
2023-06-16T05:36:44.071Z,21.74
2023-06-16T05:39:18.650Z,21.91
2023-06-16T05:42:00.950Z,22.22
2023-06-16T05:44:28.791Z,22.51
2023-06-16T05:46:58.743Z,22.67
2023-06-16T05:49:26.418Z,22.90
2023-06-16T05:52:08.444Z,23.06
2023-06-16T05:54:37.991Z,23.15
2023-06-16T05:57:06.312Z,23.39
2023-06-16T05:59:36.424Z,23.66
2023-06-16T06:02:04.000Z,23.90
2023-06-16T06:04:33.328Z,24.28
2023-06-16T06:07:02.106Z,24.36
2023-06-16T06:09:30.434Z,24.03
2023-06-16T06:11:58.218Z,23.75
2023-06-16T06:14:26.206Z,23.60
2023-06-16T06:16:53.544Z,23.43
2023-06-16T06:19:23.594Z,23.60
2023-06-16T06:21:51.047Z,23.85
2023-06-16T06:24:18.757Z,23.99
2023-06-16T06:26:46.741Z,24.33
2023-06-16T06:29:16.471Z,24.38
2023-06-16T06:31:50.524Z,24.23
2023-06-16T06:34:19.148Z,24.16
2023-06-16T06:36:48.829Z,24.29
2023-06-16T06:39:16.202Z,24.18
2023-06-16T06:41:44.229Z,23.83
2023-06-16T06:44:12.143Z,23.81
2023-06-16T06:46:39.954Z,23.71
2023-06-16T06:49:13.280Z,23.89
2023-06-16T06:51:41.630Z,24.00
2023-06-16T06:54:09.241Z,23.22
2023-06-16T06:56:36.396Z,24.16
2023-06-16T06:59:03.668Z,24.91
2023-06-16T07:01:31.402Z,25.59
2023-06-16T07:04:01.529Z,26.49
2023-06-16T07:07:00.505Z,27.33
2023-06-16T07:09:41.555Z,28.17
2023-06-16T07:12:09.823Z,28.58
2023-06-16T07:14:38.429Z,29.32
2023-06-16T07:17:06.013Z,29.76
2023-06-16T07:19:33.343Z,30.31
2023-06-16T07:22:01.990Z,30.99
2023-06-16T07:24:29.314Z,31.21
2023-06-16T07:26:57.818Z,31.39
2023-06-16T07:29:25.365Z,31.08
2023-06-16T07:31:52.817Z,31.43
2023-06-16T07:34:20.704Z,31.78
2023-06-16T07:36:48.571Z,32.02
2023-06-16T07:39:15.967Z,31.87
2023-06-16T07:41:52.666Z,29.07
2023-06-16T07:44:20.657Z,27.79
2023-06-16T07:46:48.063Z,29.82
2023-06-16T07:49:15.478Z,30.31
2023-06-16T07:55:13.737Z,30.98
2023-06-16T07:57:41.548Z,30.73
2023-06-16T08:00:12.543Z,32.35
2023-06-16T08:03:02.648Z,33.62
2023-06-16T08:08:48.928Z,31.04
2023-06-16T08:11:39.797Z,29.25
2023-06-16T08:14:28.529Z,28.93
2023-06-16T08:17:31.436Z,27.65
2023-06-16T08:20:08.292Z,29.87
2023-06-16T08:22:41.229Z,31.20
2023-06-16T08:25:10.336Z,31.76
2023-06-16T08:27:38.403Z,31.22
2023-06-16T08:30:08.253Z,31.19
2023-06-16T08:32:36.054Z,31.80
2023-06-16T08:35:07.305Z,32.14
2023-06-16T08:37:36.215Z,32.17
2023-06-16T08:43:40.053Z,29.71
2023-06-16T08:46:33.305Z,28.33
2023-06-16T08:49:31.671Z,27.41
2023-06-16T08:52:34.391Z,26.15
2023-06-16T08:55:38.322Z,26.59
2023-06-16T08:58:34.279Z,28.52
2023-06-16T09:01:24.770Z,28.26
2023-06-16T09:04:38.070Z,29.27
2023-06-16T09:07:27.837Z,28.05
2023-06-16T09:10:21.019Z,28.49
2023-06-16T09:13:20.078Z,28.87
2023-06-16T09:16:00.332Z,28.93
2023-06-16T09:22:58.940Z,29.65
2023-06-16T09:29:28.786Z,29.77
2023-06-16T09:32:16.245Z,29.80
2023-06-16T09:34:54.441Z,29.84
2023-06-16T09:37:32.167Z,29.74
2023-06-16T09:40:11.442Z,29.83
2023-06-16T09:42:54.566Z,30.03
2023-06-16T09:45:35.511Z,30.26
2023-06-16T09:48:15.792Z,30.65
2023-06-16T09:51:21.193Z,29.74
2023-06-16T09:54:25.029Z,30.44
2023-06-16T09:57:11.551Z,31.58
2023-06-16T10:03:48.900Z,28.50
2023-06-16T10:07:28.375Z,28.88
2023-06-16T10:10:19.586Z,27.09
2023-06-16T10:13:06.561Z,27.43
2023-06-16T10:19:18.790Z,27.77
2023-06-16T10:25:28.168Z,27.43
2023-06-16T10:28:15.779Z,27.06
2023-06-16T10:31:24.558Z,27.80
2023-06-16T10:34:20.417Z,28.00
2023-06-16T10:37:43.921Z,28.10
2023-06-16T10:44:42.345Z,26.63
2023-06-16T10:48:07.475Z,27.03
2023-06-16T10:50:45.759Z,26.96
2023-06-16T10:53:33.933Z,27.14
2023-06-16T10:59:38.093Z,26.92
2023-06-16T11:02:38.498Z,27.03
2023-06-16T11:05:28.730Z,27.72
2023-06-16T11:08:20.915Z,27.89
2023-06-16T11:11:25.225Z,27.82
2023-06-16T11:13:59.058Z,27.46
2023-06-16T11:16:45.904Z,28.11
2023-06-16T11:23:13.391Z,27.69
2023-06-16T11:26:14.765Z,26.80
2023-06-16T11:29:09.304Z,27.31
2023-06-16T11:35:47.367Z,27.60
2023-06-16T11:46:32.661Z,26.84
2023-06-16T11:49:58.588Z,26.05
2023-06-16T11:56:34.609Z,26.71
2023-06-16T12:00:30.918Z,27.07
2023-06-16T12:04:06.485Z,26.41
2023-06-16T12:07:11.487Z,25.72
2023-06-16T12:09:51.818Z,27.19
2023-06-16T12:12:27.750Z,27.76
2023-06-16T12:18:30.435Z,28.46
2023-06-16T12:21:19.165Z,28.21
2023-06-16T12:24:17.523Z,28.42
2023-06-16T12:26:50.430Z,28.16
2023-06-16T12:29:29.645Z,28.62
2023-06-16T12:32:30.499Z,27.55
2023-06-16T12:34:58.452Z,27.14
2023-06-16T12:37:40.484Z,28.00
2023-06-16T12:40:12.167Z,28.17
2023-06-16T12:42:52.353Z,27.44
2023-06-16T12:45:19.666Z,27.36
2023-06-16T12:48:00.943Z,27.96
2023-06-16T12:50:30.240Z,28.50
2023-06-16T12:53:14.383Z,28.46
2023-06-16T12:56:02.219Z,28.00
2023-06-16T12:58:39.575Z,28.07
2023-06-16T13:01:21.990Z,27.60
2023-06-16T13:03:49.774Z,27.04
2023-06-16T13:07:00.373Z,26.59
2023-06-16T13:09:45.860Z,26.69
2023-06-16T13:12:42.169Z,26.46
2023-06-16T13:15:22.131Z,26.79
2023-06-16T13:18:06.933Z,27.50
2023-06-16T13:20:55.971Z,28.43
2023-06-16T13:23:35.983Z,28.49
2023-06-16T13:26:26.531Z,27.75
2023-06-16T13:29:32.038Z,28.59
2023-06-16T13:32:31.280Z,28.63
2023-06-16T13:35:01.858Z,28.74
2023-06-16T13:37:43.644Z,28.87
2023-06-16T13:40:42.859Z,28.18
2023-06-16T13:43:12.344Z,27.62
2023-06-16T13:45:59.355Z,28.22
2023-06-16T13:48:30.119Z,28.36
2023-06-16T13:51:10.579Z,29.02
2023-06-16T13:53:47.046Z,29.01
2023-06-16T13:56:43.234Z,28.60
2023-06-16T13:59:29.869Z,29.12
2023-06-16T14:02:06.167Z,29.15
2023-06-16T14:05:01.861Z,29.01
2023-06-16T14:07:44.689Z,28.77
2023-06-16T14:13:41.890Z,28.37
2023-06-16T14:16:41.478Z,27.38
2023-06-16T14:19:29.553Z,26.57
2023-06-16T14:22:25.301Z,27.18
2023-06-16T14:25:21.220Z,26.86
2023-06-16T14:28:21.542Z,26.49
2023-06-16T14:31:16.685Z,27.02
2023-06-16T14:33:48.023Z,27.19
2023-06-16T14:36:35.854Z,27.30
2023-06-16T14:39:27.513Z,27.29
2023-06-16T14:42:05.566Z,27.10
2023-06-16T14:44:46.856Z,27.19
2023-06-16T14:50:48.675Z,26.39
2023-06-16T14:53:38.705Z,26.25
2023-06-16T14:56:41.266Z,26.64
2023-06-16T14:59:33.611Z,27.27
2023-06-16T15:02:10.540Z,27.56
2023-06-16T15:05:00.953Z,27.92
2023-06-16T15:07:58.270Z,28.34
2023-06-16T15:18:10.834Z,28.64
2023-06-16T15:21:18.092Z,28.35
2023-06-16T15:24:10.921Z,28.23
2023-06-16T15:26:40.665Z,28.72
2023-06-16T15:29:22.099Z,28.87
2023-06-16T15:32:00.441Z,28.69
2023-06-16T15:34:51.631Z,28.34
2023-06-16T15:40:49.611Z,28.37
2023-06-16T15:43:24.112Z,28.21
2023-06-16T15:46:03.261Z,28.24
2023-06-16T15:52:07.597Z,28.35
2023-06-16T15:54:39.115Z,27.96
2023-06-16T15:57:16.336Z,27.73
2023-06-16T15:59:48.360Z,27.88
2023-06-16T16:02:27.706Z,27.62
2023-06-16T16:04:56.398Z,27.48
2023-06-16T16:07:38.716Z,27.28
2023-06-16T16:10:42.166Z,26.96
2023-06-16T16:13:09.450Z,26.95
2023-06-16T16:15:50.204Z,26.91
2023-06-16T16:18:19.799Z,27.13
2023-06-16T16:21:03.154Z,27.18
2023-06-16T16:24:05.537Z,27.08
2023-06-16T16:26:43.326Z,27.00
2023-06-16T16:29:29.853Z,27.15
2023-06-16T16:32:20.879Z,27.02
2023-06-16T16:34:48.344Z,27.08
2023-06-16T16:40:46.814Z,26.64
2023-06-16T16:46:45.963Z,26.13
2023-06-16T16:49:26.752Z,25.14
2023-06-16T16:52:18.439Z,24.79
2023-06-16T17:01:46.997Z,23.68
2023-06-16T17:07:15.250Z,22.98
2023-06-16T17:09:54.528Z,22.90
2023-06-16T17:16:05.640Z,22.86
2023-06-16T17:18:33.488Z,22.75
2023-06-16T17:21:16.164Z,22.70
2023-06-16T17:23:48.206Z,22.80
2023-06-16T17:29:46.374Z,22.86
2023-06-16T17:32:35.020Z,22.79
2023-06-16T17:42:02.600Z,22.57
2023-06-16T17:48:24.795Z,21.94
2023-06-16T17:51:36.948Z,21.56
2023-06-16T17:55:04.280Z,21.70
2023-06-16T17:58:24.384Z,21.57
2023-06-16T18:08:16.115Z,21.78
2023-06-16T18:13:58.636Z,21.66
2023-06-16T18:19:59.742Z,22.24
2023-06-16T18:22:43.588Z,22.51
2023-06-16T18:25:10.985Z,22.30
2023-06-16T18:27:53.753Z,22.13
2023-06-16T18:30:21.250Z,21.95
2023-06-16T18:33:05.270Z,21.86
2023-06-16T18:35:32.578Z,21.80
2023-06-16T18:38:14.645Z,21.68
2023-06-16T18:40:42.029Z,21.47
2023-06-16T18:43:25.555Z,21.29
2023-06-16T18:46:26.239Z,21.20
2023-06-16T18:48:57.272Z,21.04
2023-06-16T18:55:01.181Z,21.03
2023-06-16T18:57:45.455Z,21.01
2023-06-16T19:00:16.174Z,21.09
2023-06-16T19:02:54.909Z,20.90
2023-06-16T19:05:29.690Z,20.80
2023-06-16T19:08:14.873Z,20.80
2023-06-16T19:10:45.729Z,20.74
2023-06-16T19:16:47.562Z,20.35
2023-06-16T19:19:42.145Z,20.45
2023-06-16T19:23:03.632Z,20.47
2023-06-16T19:29:39.202Z,20.64
2023-06-16T19:32:35.165Z,20.66
2023-06-16T19:35:08.851Z,20.70
2023-06-16T19:37:52.542Z,20.66
2023-06-16T19:44:05.189Z,20.62
2023-06-16T19:50:26.389Z,20.52
2023-06-16T19:53:19.709Z,20.37
2023-06-16T19:56:23.471Z,20.41
2023-06-16T19:59:48.752Z,20.10
2023-06-16T20:02:43.680Z,20.24
2023-06-16T20:08:55.834Z,20.31
2023-06-16T20:11:23.538Z,20.23
2023-06-16T20:14:08.612Z,20.21
2023-06-16T20:16:36.702Z,20.30
2023-06-16T20:22:33.671Z,20.08
2023-06-16T20:25:15.114Z,20.12
2023-06-16T20:31:42.932Z,20.08
2023-06-16T20:34:13.100Z,20.04
2023-06-16T20:36:50.726Z,20.07
2023-06-16T20:39:24.926Z,20.00
2023-06-16T20:41:56.890Z,19.66
2023-06-16T20:44:24.394Z,19.49
2023-06-16T20:46:51.673Z,19.36
2023-06-16T20:49:19.390Z,19.32
2023-06-16T20:51:47.090Z,19.16
2023-06-16T20:54:14.263Z,19.13
2023-06-16T21:00:12.564Z,19.01
2023-06-16T21:02:40.789Z,18.93
2023-06-16T21:05:12.528Z,18.69
2023-06-16T21:07:45.604Z,18.53
2023-06-16T21:10:21.025Z,18.40
2023-06-16T21:12:48.959Z,18.30
2023-06-16T21:15:19.954Z,18.32
2023-06-16T21:17:50.447Z,18.31
2023-06-16T21:20:20.235Z,18.26
2023-06-16T21:22:52.045Z,18.23
2023-06-16T21:25:20.022Z,18.15
2023-06-16T21:27:47.431Z,18.09
2023-06-16T21:30:14.794Z,18.03
2023-06-16T21:32:44.963Z,17.99
2023-06-16T21:35:12.558Z,17.98
2023-06-16T21:37:43.702Z,18.05
2023-06-16T21:40:12.997Z,17.96
2023-06-16T21:42:41.573Z,17.82
2023-06-16T21:45:11.728Z,17.77
2023-06-16T21:47:39.880Z,17.74
2023-06-16T21:50:08.444Z,17.71
2023-06-16T21:52:36.157Z,17.63
2023-06-16T21:55:04.674Z,17.72
2023-06-16T21:57:32.803Z,17.61
2023-06-16T22:00:00.469Z,17.52
2023-06-16T22:02:28.505Z,17.39
2023-06-16T22:04:56.579Z,17.35
2023-06-16T22:07:48.527Z,17.32
2023-06-16T22:10:30.688Z,17.31
2023-06-16T22:12:59.122Z,17.15
2023-06-16T22:15:27.602Z,17.05
2023-06-16T22:17:55.038Z,16.98
2023-06-16T22:20:22.957Z,16.89
2023-06-16T22:22:51.040Z,16.95
2023-06-16T22:25:18.328Z,16.96
2023-06-16T22:27:46.967Z,16.91
2023-06-16T22:30:14.956Z,16.92
2023-06-16T22:32:42.477Z,17.00
2023-06-16T22:35:09.794Z,17.02
2023-06-16T22:37:37.472Z,17.01
2023-06-16T22:40:06.348Z,16.95
2023-06-16T22:42:33.622Z,16.99
2023-06-16T22:45:01.266Z,17.02
2023-06-16T22:47:30.728Z,16.91
2023-06-16T22:49:58.094Z,16.84
2023-06-16T22:52:25.746Z,16.78
2023-06-16T22:58:23.113Z,16.83
2023-06-16T23:00:50.832Z,16.83
2023-06-16T23:03:18.284Z,16.80
2023-06-16T23:05:45.614Z,16.84
2023-06-16T23:08:13.255Z,16.79
2023-06-16T23:10:40.559Z,16.79
2023-06-16T23:13:07.872Z,16.75
2023-06-16T23:15:37.901Z,16.71
2023-06-16T23:18:05.711Z,16.70
2023-06-16T23:20:34.762Z,16.62
2023-06-16T23:23:04.429Z,16.42
2023-06-16T23:25:32.031Z,16.54
2023-06-16T23:28:01.977Z,16.70
2023-06-16T23:30:31.363Z,16.65
2023-06-16T23:33:03.822Z,16.67
2023-06-16T23:35:31.582Z,16.62
2023-06-16T23:37:58.975Z,16.60
2023-06-16T23:40:26.896Z,16.49
2023-06-16T23:43:02.551Z,16.48
2023-06-16T23:45:31.880Z,16.40
2023-06-16T23:48:09.995Z,16.34
2023-06-16T23:50:43.366Z,16.31
2023-06-16T23:53:11.164Z,16.21
2023-06-16T23:55:38.466Z,16.08
2023-06-16T23:58:05.763Z,16.10
